Time;durP1;ratioP1;P1;durP2;ratioP2;P2;SDS_P1;SDS_P2;PMS_P1;PMS_P2;Temp;Humidity;BMP_temperature;BMP_pressure;BME280_temperature;BME280_humidity;BME280_pressure;Samples;Min_cycle;Max_cycle;Signal;HPM_P1;HPM_P2
2022/05/21 00:02:16;;;;;;;0.60;0.60;;;18.70;99.90;;;;;;5094434;28;21001;-85
2022/05/21 00:04:43;;;;;;;0.50;0.50;;;18.60;99.90;;;;;;5094717;28;20452;-85
2022/05/21 00:07:10;;;;;;;1.30;0.70;;;18.60;99.90;;;;;;5094565;28;20487;-85
2022/05/21 00:09:37;;;;;;;0.70;0.70;;;18.50;99.90;;;;;;5094392;28;20842;-85
2022/05/21 00:12:04;;;;;;;0.70;0.60;;;18.50;99.90;;;;;;5094503;28;20467;-85
2022/05/21 00:14:34;;;;;;;0.60;0.50;;;18.50;99.90;;;;;;5094498;28;20448;-85
2022/05/21 00:17:01;;;;;;;0.60;0.50;;;18.40;99.90;;;;;;5094534;28;20444;-85
2022/05/21 00:19:28;;;;;;;0.50;0.50;;;18.40;99.90;;;;;;5094121;28;20447;-85
2022/05/21 00:21:54;;;;;;;0.50;0.40;;;18.30;99.90;;;;;;5094593;28;20464;-85
2022/05/21 00:24:21;;;;;;;0.60;0.60;;;18.30;99.90;;;;;;5094050;28;20955;-85
2022/05/21 00:26:48;;;;;;;0.50;0.40;;;18.20;99.90;;;;;;5094128;28;20471;-85
2022/05/21 00:29:15;;;;;;;0.40;0.40;;;18.20;99.90;;;;;;5093963;28;20444;-85
2022/05/21 00:31:43;;;;;;;0.50;0.33;;;18.10;99.90;;;;;;5094143;28;20459;-84
2022/05/21 00:34:10;;;;;;;0.67;0.63;;;18.10;99.90;;;;;;5093859;28;20939;-84
2022/05/21 00:36:37;;;;;;;0.50;0.50;;;18.00;99.90;;;;;;5093864;28;20436;-85
2022/05/21 00:39:04;;;;;;;1.13;0.60;;;18.00;99.90;;;;;;5094075;28;20510;-85
2022/05/21 00:41:31;;;;;;;0.50;0.50;;;17.90;99.90;;;;;;5093489;28;20479;-85
2022/05/21 00:43:59;;;;;;;1.23;0.40;;;17.90;99.90;;;;;;5093943;28;20505;-85
2022/05/21 00:46:29;;;;;;;1.00;0.43;;;17.90;99.90;;;;;;5093509;28;20475;-85
2022/05/21 00:49:04;;;;;;;0.53;0.53;;;17.80;99.90;;;;;;5093949;28;20511;-85
2022/05/21 00:51:37;;;;;;;0.87;0.40;;;17.80;99.90;;;;;;5093891;28;20467;-85
2022/05/21 00:54:05;;;;;;;0.40;0.40;;;17.70;99.90;;;;;;5093877;28;20439;-85
2022/05/21 00:56:37;;;;;;;0.50;0.50;;;17.70;99.90;;;;;;5093827;28;20457;-85
2022/05/21 01:01:54;;;;;;;0.50;0.50;;;17.60;99.90;;;;;;5093624;28;20455;-85
2022/05/21 01:04:23;;;;;;;0.80;0.47;;;17.50;99.90;;;;;;5093765;28;20428;-85
2022/05/21 01:06:49;;;;;;;0.97;0.57;;;17.50;99.90;;;;;;5093630;28;20555;-85
2022/05/21 01:09:16;;;;;;;1.17;0.90;;;17.50;99.90;;;;;;5093619;28;20440;-85
2022/05/21 01:11:43;;;;;;;0.40;0.40;;;17.40;99.90;;;;;;5093551;28;20471;-85
2022/05/21 01:14:12;;;;;;;0.40;0.40;;;17.40;99.90;;;;;;5093259;28;20448;-85
2022/05/21 01:16:39;;;;;;;0.40;0.40;;;17.40;99.90;;;;;;5093690;28;20443;-85
2022/05/21 01:19:07;;;;;;;0.40;0.37;;;17.40;99.90;;;;;;5093729;28;20443;-84
2022/05/21 01:21:36;;;;;;;0.43;0.43;;;17.40;99.90;;;;;;5093417;28;20475;-85
2022/05/21 01:24:06;;;;;;;0.60;0.50;;;17.30;99.90;;;;;;5093138;28;20951;-85
2022/05/21 01:26:35;;;;;;;0.80;0.47;;;17.20;99.90;;;;;;5093366;28;20476;-85
2022/05/21 01:29:04;;;;;;;0.73;0.53;;;17.20;99.90;;;;;;5093090;28;20962;-85
2022/05/21 01:31:32;;;;;;;0.43;0.33;;;17.10;99.90;;;;;;5093341;28;20520;-84
2022/05/21 01:34:00;;;;;;;0.40;0.40;;;17.00;99.90;;;;;;5093648;28;20440;-85
2022/05/21 01:36:27;;;;;;;0.40;0.40;;;17.00;99.90;;;;;;5093355;28;20447;-85
2022/05/21 01:38:54;;;;;;;0.50;0.40;;;17.00;99.90;;;;;;5093343;28;20444;-84
2022/05/21 01:41:22;;;;;;;0.40;0.30;;;16.90;99.90;;;;;;5092868;28;20486;-85
2022/05/21 01:46:33;;;;;;;0.50;0.50;;;16.80;99.90;;;;;;5093153;28;20459;-85
2022/05/21 01:49:00;;;;;;;0.30;0.30;;;16.80;99.90;;;;;;5093317;28;20444;-85
2022/05/21 01:51:26;;;;;;;0.40;0.40;;;16.80;99.90;;;;;;5093166;28;20481;-85
2022/05/21 01:53:53;;;;;;;0.40;0.40;;;16.70;99.90;;;;;;5093261;28;20454;-85
2022/05/21 01:56:21;;;;;;;0.40;0.30;;;16.60;99.90;;;;;;5093188;28;20965;-85
2022/05/21 01:58:48;;;;;;;1.13;0.50;;;16.50;99.90;;;;;;5093181;28;20550;-85
2022/05/21 02:01:15;;;;;;;0.40;0.30;;;16.50;99.90;;;;;;5093073;28;20494;-85
2022/05/21 02:03:42;;;;;;;0.30;0.30;;;16.40;99.90;;;;;;5093443;28;20777;-85
2022/05/21 02:06:09;;;;;;;0.43;0.37;;;16.40;99.90;;;;;;5092828;28;20950;-85
2022/05/21 02:08:36;;;;;;;0.40;0.30;;;16.30;99.90;;;;;;5093030;28;20476;-85
2022/05/21 02:11:03;;;;;;;0.40;0.40;;;16.30;99.90;;;;;;5092729;28;21031;-84
2022/05/21 02:13:33;;;;;;;0.30;0.30;;;16.20;99.90;;;;;;5093040;28;20452;-85
2022/05/21 02:16:00;;;;;;;0.40;0.30;;;16.20;99.90;;;;;;5092968;28;20443;-84
2022/05/21 02:18:27;;;;;;;0.50;0.40;;;16.20;99.90;;;;;;5092985;28;20439;-85
2022/05/21 02:20:54;;;;;;;0.73;0.50;;;16.20;99.90;;;;;;5093505;28;20459;-85
2022/05/21 02:23:21;;;;;;;0.47;0.47;;;16.10;99.90;;;;;;5097017;28;20454;-85
2022/05/21 02:25:48;;;;;;;0.53;0.30;;;16.10;99.90;;;;;;5096413;28;20800;-85
2022/05/21 02:28:16;;;;;;;0.50;0.40;;;16.10;99.90;;;;;;5096250;28;20479;-85
2022/05/21 02:30:45;;;;;;;0.50;0.43;;;16.00;99.90;;;;;;5096154;28;20497;-85
2022/05/21 02:33:12;;;;;;;0.37;0.30;;;16.00;99.90;;;;;;5096624;28;20451;-85
2022/05/21 02:35:39;;;;;;;0.50;0.40;;;16.00;99.90;;;;;;5096513;28;20455;-85
2022/05/21 02:40:50;;;;;;;0.40;0.30;;;15.90;99.90;;;;;;5096106;28;20482;-85
2022/05/21 02:43:17;;;;;;;0.57;0.40;;;15.90;99.90;;;;;;5096559;28;20451;-85
2022/05/21 02:45:45;;;;;;;0.60;0.50;;;15.90;99.90;;;;;;5096387;28;20489;-85
2022/05/21 02:48:12;;;;;;;0.30;0.30;;;15.90;99.90;;;;;;5096063;28;20484;-85
2022/05/21 02:50:39;;;;;;;1.67;1.67;;;15.90;99.90;;;;;;5096054;28;20451;-85
2022/05/21 02:53:09;;;;;;;0.30;0.30;;;15.80;99.90;;;;;;5096348;28;20447;-85
2022/05/21 02:55:36;;;;;;;0.40;0.40;;;15.80;99.90;;;;;;5096358;28;20429;-85
2022/05/21 02:58:03;;;;;;;0.57;0.37;;;15.70;99.90;;;;;;5096020;28;20810;-85
2022/05/21 03:00:32;;;;;;;0.37;0.33;;;15.70;99.90;;;;;;5095860;28;20451;-85
2022/05/21 03:03:00;;;;;;;0.70;0.50;;;15.60;99.90;;;;;;5095923;28;20440;-85
2022/05/21 03:05:29;;;;;;;0.30;0.30;;;15.60;99.90;;;;;;5095959;28;20459;-84
2022/05/21 03:07:56;;;;;;;0.50;0.50;;;15.60;99.90;;;;;;5095699;28;20510;-85
2022/05/21 03:10:25;;;;;;;1.40;1.37;;;15.60;99.90;;;;;;5095814;28;20446;-85
2022/05/21 03:12:54;;;;;;;0.33;0.33;;;15.50;99.90;;;;;;5095432;28;20484;-85
2022/05/21 03:15:24;;;;;;;1.07;0.40;;;15.50;99.90;;;;;;5095781;28;20501;-86
2022/05/21 03:17:51;;;;;;;0.30;0.30;;;15.40;99.90;;;;;;5095943;28;20759;-85
2022/05/21 03:20:21;;;;;;;0.67;0.40;;;15.40;99.90;;;;;;5095672;28;20791;-85
2022/05/21 03:22:48;;;;;;;0.40;0.40;;;15.30;99.90;;;;;;5095265;28;20557;-85
2022/05/21 03:25:15;;;;;;;0.40;0.40;;;15.30;99.90;;;;;;5095086;28;20455;-85
2022/05/21 03:27:42;;;;;;;0.50;0.40;;;15.30;99.90;;;;;;5095172;28;21010;-85
2022/05/21 03:30:12;;;;;;;0.30;0.30;;;15.20;99.90;;;;;;5095467;28;20428;-85
2022/05/21 03:32:39;;;;;;;0.40;0.30;;;15.20;99.90;;;;;;5093917;28;20983;-85
2022/05/21 03:35:08;;;;;;;0.40;0.30;;;15.10;99.90;;;;;;5095632;28;20444;-85
2022/05/21 03:37:37;;;;;;;0.70;0.40;;;15.10;99.90;;;;;;5095041;28;21065;-85
2022/05/21 03:40:05;;;;;;;1.67;0.67;;;15.00;99.90;;;;;;5095291;28;20475;-85
2022/05/21 03:42:32;;;;;;;0.50;0.50;;;15.00;99.90;;;;;;5095121;28;20495;-85
2022/05/21 03:44:59;;;;;;;0.70;0.40;;;15.00;99.90;;;;;;5095128;28;20812;-85
2022/05/21 03:47:26;;;;;;;0.40;0.40;;;14.90;99.90;;;;;;5094970;28;20840;-85
2022/05/21 03:49:52;;;;;;;0.50;0.40;;;14.90;99.90;;;;;;5094990;28;20444;-85
2022/05/21 03:52:20;;;;;;;0.40;0.30;;;14.80;99.90;;;;;;5094883;28;20456;-85
2022/05/21 03:54:48;;;;;;;0.40;0.40;;;14.80;99.90;;;;;;5094852;28;20895;-85
2022/05/21 03:57:15;;;;;;;0.60;0.40;;;14.80;99.90;;;;;;5094870;28;20444;-85
2022/05/21 03:59:43;;;;;;;0.40;0.30;;;14.90;99.90;;;;;;5094527;28;20792;-85
2022/05/21 04:02:10;;;;;;;0.80;0.80;;;14.80;99.90;;;;;;5094398;28;20856;-84
2022/05/21 04:04:37;;;;;;;0.50;0.50;;;14.80;99.90;;;;;;5094734;28;20474;-85
2022/05/21 04:07:04;;;;;;;0.60;0.60;;;14.80;99.90;;;;;;5094615;28;20465;-85
2022/05/21 04:09:31;;;;;;;0.90;0.40;;;14.80;99.90;;;;;;5094641;28;20448;-85
2022/05/21 04:11:59;;;;;;;0.40;0.33;;;14.70;99.90;;;;;;5094201;28;20464;-85
2022/05/21 04:14:27;;;;;;;0.80;0.40;;;14.70;99.90;;;;;;5094192;28;20954;-85
2022/05/21 04:16:55;;;;;;;0.40;0.30;;;14.70;99.90;;;;;;5094681;28;20452;-85
2022/05/21 04:19:22;;;;;;;3.43;0.80;;;14.70;99.90;;;;;;5094426;28;20452;-85
2022/05/21 04:21:49;;;;;;;0.40;0.40;;;14.70;99.90;;;;;;5094448;28;20452;-85
2022/05/21 04:24:15;;;;;;;0.43;0.37;;;14.70;99.90;;;;;;5094327;28;20514;-85
2022/05/21 04:26:42;;;;;;;0.60;0.60;;;14.70;99.90;;;;;;5094305;28;20444;-85
2022/05/21 04:29:13;;;;;;;0.40;0.40;;;14.80;99.90;;;;;;5094236;28;20484;-85
2022/05/21 04:31:39;;;;;;;0.50;0.47;;;14.80;99.90;;;;;;5094459;28;20871;-85
2022/05/21 04:34:06;;;;;;;0.40;0.37;;;14.80;99.90;;;;;;5093901;28;20443;-85
2022/05/21 04:36:34;;;;;;;0.57;0.33;;;14.80;99.90;;;;;;5093861;28;20449;-85
2022/05/21 04:39:01;;;;;;;0.43;0.40;;;14.80;99.90;;;;;;5093935;28;20466;-84
2022/05/21 04:41:28;;;;;;;0.77;0.37;;;14.80;99.90;;;;;;5093637;28;20475;-86
2022/05/21 04:43:55;;;;;;;0.40;0.30;;;14.80;99.90;;;;;;5093540;28;20436;-85
2022/05/21 04:46:25;;;;;;;0.40;0.40;;;14.80;99.90;;;;;;5094030;28;20455;-85
2022/05/21 04:48:52;;;;;;;0.40;0.33;;;14.90;99.90;;;;;;5093812;28;20487;-85
2022/05/21 04:51:19;;;;;;;0.87;0.50;;;14.90;99.90;;;;;;5093814;28;20464;-85
2022/05/21 04:53:46;;;;;;;0.40;0.40;;;14.90;99.90;;;;;;5093561;28;20969;-85
2022/05/21 04:56:13;;;;;;;0.30;0.30;;;15.00;99.90;;;;;;5093800;28;20448;-85
2022/05/21 04:58:40;;;;;;;0.40;0.40;;;15.00;99.90;;;;;;5093527;28;20932;-85
2022/05/21 05:01:08;;;;;;;0.40;0.30;;;15.00;99.90;;;;;;5093646;28;20475;-85
2022/05/21 05:03:36;;;;;;;0.33;0.33;;;15.00;99.90;;;;;;5093436;28;20439;-85
2022/05/21 05:06:04;;;;;;;0.30;0.20;;;15.10;99.90;;;;;;5093846;28;20463;-85
2022/05/21 05:08:31;;;;;;;1.83;0.50;;;15.10;99.90;;;;;;5093499;28;20926;-85
2022/05/21 05:10:57;;;;;;;0.60;0.47;;;15.10;99.90;;;;;;5093298;28;20455;-85
2022/05/21 05:13:24;;;;;;;0.50;0.47;;;15.10;99.90;;;;;;5093296;28;20823;-85
2022/05/21 05:15:51;;;;;;;0.40;0.30;;;15.20;99.90;;;;;;5093235;28;20476;-85
2022/05/21 05:18:21;;;;;;;0.57;0.47;;;15.20;99.90;;;;;;5093237;28;20428;-85
2022/05/21 05:20:49;;;;;;;0.50;0.30;;;15.30;99.90;;;;;;5093940;28;20472;-85
2022/05/21 05:23:17;;;;;;;0.50;0.40;;;15.40;99.90;;;;;;5093379;28;20884;-85
2022/05/21 05:25:44;;;;;;;0.60;0.60;;;15.50;99.90;;;;;;5094070;28;20455;-85
2022/05/21 05:28:16;;;;;;;0.50;0.50;;;15.50;99.90;;;;;;5093358;28;20483;-85
2022/05/21 05:30:43;;;;;;;0.40;0.40;;;15.60;99.90;;;;;;5092950;28;20476;-85
2022/05/21 05:33:10;;;;;;;0.43;0.40;;;15.60;99.90;;;;;;5093485;28;20432;-85
2022/05/21 05:35:37;;;;;;;0.40;0.30;;;15.70;99.90;;;;;;5093389;28;20444;-85
2022/05/21 05:38:10;;;;;;;0.30;0.30;;;15.80;99.90;;;;;;5093051;28;20448;-85
2022/05/21 05:40:37;;;;;;;0.53;0.33;;;15.90;99.90;;;;;;5093040;28;20472;-85
2022/05/21 05:43:05;;;;;;;0.37;0.33;;;15.90;99.90;;;;;;5093053;28;20935;-85
2022/05/21 05:45:31;;;;;;;0.50;0.50;;;15.90;99.90;;;;;;5093334;28;20436;-85
2022/05/21 05:47:58;;;;;;;0.97;0.43;;;16.10;99.90;;;;;;5092925;28;21029;-85
2022/05/21 05:50:25;;;;;;;0.40;0.30;;;16.10;99.90;;;;;;5092926;28;21020;-85
2022/05/21 05:52:53;;;;;;;0.50;0.50;;;16.30;99.90;;;;;;5093179;28;20448;-85
2022/05/21 05:55:21;;;;;;;0.37;0.37;;;16.40;99.90;;;;;;5093018;28;20428;-85
2022/05/21 05:57:52;;;;;;;0.50;0.40;;;16.60;99.90;;;;;;5097250;28;20454;-89
2022/05/21 06:00:19;;;;;;;0.40;0.33;;;16.70;99.90;;;;;;5096798;28;20939;-85
2022/05/21 06:03:02;;;;;;;0.40;0.40;;;16.80;99.90;;;;;;5097367;28;20531;-85
2022/05/21 06:05:31;;;;;;;0.40;0.40;;;16.90;99.90;;;;;;5097111;28;20413;-84
2022/05/21 06:08:00;;;;;;;0.30;0.30;;;17.00;99.90;;;;;;5097007;28;20510;-84
2022/05/21 06:10:30;;;;;;;0.50;0.50;;;17.10;99.90;;;;;;5096711;28;20419;-85
2022/05/21 06:12:58;;;;;;;0.30;0.30;;;17.30;99.90;;;;;;5096679;28;20415;-85
2022/05/21 06:15:26;;;;;;;0.40;0.40;;;17.50;99.90;;;;;;5096843;28;20432;-84
2022/05/21 06:17:54;;;;;;;0.97;0.43;;;17.70;99.90;;;;;;5096503;28;20908;-85
2022/05/21 06:20:23;;;;;;;0.57;0.37;;;17.90;99.90;;;;;;5097016;28;20907;-85
2022/05/21 06:22:50;;;;;;;1.10;0.40;;;18.10;99.90;;;;;;5096794;28;20490;-85
2022/05/21 06:25:23;;;;;;;0.47;0.47;;;18.30;99.90;;;;;;5096668;28;20444;-85
2022/05/21 06:27:53;;;;;;;0.40;0.40;;;18.50;99.90;;;;;;5096274;28;20439;-86
2022/05/21 06:30:23;;;;;;;0.40;0.30;;;18.70;99.90;;;;;;5096384;28;20423;-86
2022/05/21 06:32:50;;;;;;;0.30;0.30;;;18.90;99.90;;;;;;5097007;28;20439;-86
2022/05/21 06:35:19;;;;;;;0.60;0.40;;;19.20;99.90;;;;;;5096576;28;20459;-86
2022/05/21 06:37:46;;;;;;;0.80;0.43;;;19.30;99.90;;;;;;5096457;28;20443;-86
2022/05/21 06:40:15;;;;;;;0.50;0.40;;;19.50;99.90;;;;;;5096695;28;20477;-86
2022/05/21 06:42:42;;;;;;;0.40;0.40;;;19.80;99.90;;;;;;5096270;28;20456;-86
2022/05/21 06:45:11;;;;;;;0.43;0.43;;;20.00;99.90;;;;;;5096189;28;20447;-87
2022/05/21 06:47:38;;;;;;;0.50;0.50;;;20.30;99.90;;;;;;5101147;28;20448;-86
2022/05/21 06:50:06;;;;;;;0.40;0.40;;;20.70;99.90;;;;;;5110754;28;20224;-86
2022/05/21 06:52:35;;;;;;;0.40;0.30;;;21.00;99.90;;;;;;5115821;28;20201;-85
2022/05/21 06:55:01;;;;;;;0.60;0.40;;;21.10;99.90;;;;;;5114100;28;20220;-87
2022/05/21 06:57:28;;;;;;;0.40;0.40;;;21.20;99.90;;;;;;5115116;28;20197;-86
2022/05/21 06:59:56;;;;;;;0.60;0.40;;;21.30;99.90;;;;;;5107839;28;20258;-87
2022/05/21 07:02:25;;;;;;;0.40;0.40;;;21.20;99.90;;;;;;5095917;28;20213;-86
2022/05/21 07:07:43;;;;;;;0.30;0.30;;;21.50;99.90;;;;;;5096087;28;20267;-86
2022/05/21 07:10:12;;;;;;;0.40;0.40;;;21.60;99.60;;;;;;5095584;28;20217;-87
2022/05/21 07:12:40;;;;;;;0.40;0.30;;;21.80;98.00;;;;;;5095486;28;20213;-86
2022/05/21 07:15:08;;;;;;;0.40;0.40;;;22.00;97.10;;;;;;5095887;28;20215;-86
2022/05/21 07:17:36;;;;;;;0.32;0.32;;;22.00;96.30;;;;;;5095777;28;20205;-86
2022/05/21 07:20:04;;;;;;;0.50;0.32;;;22.10;95.90;;;;;;5095668;28;20205;-87
2022/05/21 07:22:31;;;;;;;0.30;0.30;;;22.40;94.90;;;;;;5095500;28;20225;-86
2022/05/21 07:24:59;;;;;;;0.40;0.38;;;22.60;94.50;;;;;;5095718;28;20251;-87
2022/05/21 07:27:26;;;;;;;1.30;0.40;;;22.80;93.70;;;;;;5095430;28;20202;-87
2022/05/21 07:29:53;;;;;;;3.60;0.50;;;22.90;93.10;;;;;;5095199;28;20711;-87
2022/05/21 07:32:22;;;;;;;0.75;0.40;;;23.20;92.90;;;;;;5095349;28;20221;-87
2022/05/21 07:34:57;;;;;;;0.30;0.30;;;23.30;91.00;;;;;;5095493;28;20197;-87
2022/05/21 07:37:24;;;;;;;0.40;0.30;;;23.60;91.20;;;;;;5095341;28;20188;-87
2022/05/21 07:39:51;;;;;;;0.50;0.40;;;24.10;90.10;;;;;;5095158;28;20197;-86
2022/05/21 07:42:18;;;;;;;0.47;0.40;;;24.50;86.80;;;;;;5095323;28;20225;-87
2022/05/21 07:44:44;;;;;;;0.40;0.40;;;25.00;86.20;;;;;;5095169;28;20213;-87
2022/05/21 07:47:11;;;;;;;0.40;0.40;;;25.50;83.60;;;;;;5095229;28;20206;-87
2022/05/21 07:49:38;;;;;;;0.50;0.40;;;26.00;81.60;;;;;;5095166;28;20222;-88
2022/05/21 07:52:07;;;;;;;0.40;0.40;;;26.60;75.30;;;;;;5095131;28;20616;-88
2022/05/21 07:54:34;;;;;;;0.40;0.40;;;27.10;74.30;;;;;;5095288;28;20211;-88
2022/05/21 07:57:02;;;;;;;0.40;0.40;;;27.40;70.60;;;;;;5095078;28;20197;-88
2022/05/21 07:59:29;;;;;;;0.40;0.40;;;27.60;70.40;;;;;;5095076;28;20220;-88
2022/05/21 08:01:55;;;;;;;0.35;0.30;;;28.20;68.20;;;;;;5094806;28;20220;-89
2022/05/21 08:04:22;;;;;;;0.40;0.30;;;28.90;65.20;;;;;;5094839;28;20206;-88
2022/05/21 08:06:49;;;;;;;0.45;0.40;;;29.60;62.10;;;;;;5094952;28;20201;-88
2022/05/21 08:09:17;;;;;;;0.40;0.40;;;30.40;59.60;;;;;;5094668;28;20579;-88
2022/05/21 08:11:44;;;;;;;0.40;0.40;;;30.70;57.70;;;;;;5094711;28;20227;-88
2022/05/21 08:14:11;;;;;;;0.40;0.40;;;30.80;55.90;;;;;;5094540;28;20194;-89
2022/05/21 08:16:38;;;;;;;0.40;0.40;;;30.30;54.70;;;;;;5094420;28;20694;-87
2022/05/21 08:19:05;;;;;;;0.40;0.30;;;29.80;55.10;;;;;;5094032;28;20197;-88
2022/05/21 08:21:31;;;;;;;0.30;0.30;;;29.00;56.00;;;;;;5094431;28;20593;-88
2022/05/21 08:26:59;;;;;;;0.40;0.30;;;27.70;57.60;;;;;;5094837;28;20179;-89
2022/05/21 08:29:27;;;;;;;0.40;0.30;;;27.40;58.50;;;;;;5094589;28;20220;-89
2022/05/21 08:31:54;;;;;;;0.30;0.30;;;26.90;58.20;;;;;;5094091;28;20225;-86
2022/05/21 08:34:21;;;;;;;0.38;0.30;;;27.10;58.40;;;;;;5095270;28;20675;-90
2022/05/21 08:36:49;;;;;;;0.30;0.30;;;27.50;57.50;;;;;;5096285;28;20214;-92
2022/05/21 08:39:16;;;;;;;1.40;0.30;;;27.50;57.10;;;;;;5095143;28;20252;-90
2022/05/21 08:41:52;;;;;;;1.08;0.30;;;27.50;57.30;;;;;;5094437;28;20241;-91
2022/05/21 08:44:34;;;;;;;0.40;0.40;;;27.20;57.10;;;;;;5095135;28;20191;-91
2022/05/21 08:47:06;;;;;;;0.40;0.40;;;26.80;57.90;;;;;;5095126;28;20200;-90
2022/05/21 08:49:36;;;;;;;1.48;0.30;;;26.30;58.80;;;;;;5094818;28;20211;-91
2022/05/21 08:52:14;;;;;;;0.30;0.30;;;26.20;58.00;;;;;;5094714;28;20226;-89
2022/05/21 08:54:44;;;;;;;0.30;0.30;;;26.00;58.50;;;;;;5094761;28;20229;-90
2022/05/21 08:57:17;;;;;;;0.30;0.30;;;25.80;58.70;;;;;;5095689;28;20201;-92
2022/05/21 08:59:49;;;;;;;0.68;0.40;;;25.80;60.30;;;;;;5094561;28;20183;-90
2022/05/21 09:02:18;;;;;;;0.30;0.25;;;26.00;61.00;;;;;;5095024;28;20224;-90
2022/05/21 09:04:45;;;;;;;0.40;0.35;;;26.10;61.20;;;;;;5094895;28;20211;-90
2022/05/21 09:07:19;;;;;;;0.40;0.30;;;26.00;59.90;;;;;;5094465;28;20204;-89
2022/05/21 09:10:06;;;;;;;0.40;0.35;;;26.00;59.40;;;;;;5094229;28;20234;-89
2022/05/21 09:12:43;;;;;;;0.30;0.30;;;26.10;59.50;;;;;;5090235;28;20221;-89
2022/05/21 09:16:54;;;;;;;0.30;0.30;;;26.10;58.00;;;;;;5094406;28;20185;-90
2022/05/21 09:18:03;;;;;;;0.47;0.30;;;26.20;58.60;;;;;;5093935;28;20201;-89
2022/05/21 09:20:34;;;;;;;0.40;0.30;;;26.40;59.30;;;;;;5093875;28;20204;-89
2022/05/21 09:23:02;;;;;;;0.40;0.32;;;26.40;58.20;;;;;;5094158;28;20178;-90
2022/05/21 09:25:29;;;;;;;0.40;0.30;;;26.60;58.10;;;;;;5094359;28;20201;-90
2022/05/21 09:28:04;;;;;;;0.40;0.32;;;26.60;58.00;;;;;;5094208;28;20267;-91
2022/05/21 09:30:33;;;;;;;0.40;0.40;;;26.30;57.60;;;;;;5094302;28;20207;-89
2022/05/21 09:33:02;;;;;;;0.32;0.32;;;25.90;57.70;;;;;;5098580;28;20205;-89
2022/05/21 09:35:31;;;;;;;0.35;0.35;;;25.60;59.10;;;;;;5098214;28;20212;-89
2022/05/21 09:38:12;;;;;;;0.40;0.30;;;25.40;59.30;;;;;;5098441;28;20253;-90
2022/05/21 09:40:41;;;;;;;0.30;0.30;;;25.40;59.00;;;;;;5098168;28;20633;-90
2022/05/21 09:46:17;;;;;;;0.40;0.38;;;25.70;59.30;;;;;;5098425;28;20303;-89
2022/05/21 09:48:45;;;;;;;0.30;0.30;;;25.90;58.20;;;;;;5098340;28;20194;-89
2022/05/21 09:51:27;;;;;;;0.40;0.30;;;25.90;59.00;;;;;;5097641;28;20730;-89
2022/05/21 09:53:54;;;;;;;3.47;0.40;;;25.70;56.10;;;;;;5098353;28;20185;-90
2022/05/21 09:56:23;;;;;;;0.40;0.40;;;25.60;58.90;;;;;;5099569;28;20197;-90
2022/05/21 09:58:54;;;;;;;0.30;0.30;;;25.30;58.40;;;;;;5097943;28;20299;-90
2022/05/21 10:01:36;;;;;;;0.40;0.35;;;25.30;58.70;;;;;;5098383;28;20229;-90
2022/05/21 10:04:13;;;;;;;2.75;0.40;;;25.10;59.00;;;;;;5098252;28;20201;-89
2022/05/21 10:06:45;;;;;;;0.47;0.30;;;25.10;59.90;;;;;;5097917;28;20185;-89
2022/05/21 10:12:05;;;;;;;0.40;0.30;;;25.20;60.10;;;;;;5097817;28;20314;-89
2022/05/21 10:14:36;;;;;;;0.40;0.30;;;25.20;60.10;;;;;;5098806;28;20205;-90
2022/05/21 10:17:06;;;;;;;1.48;0.50;;;25.20;58.50;;;;;;5098073;28;20565;-90
2022/05/21 10:19:45;;;;;;;0.40;0.40;;;25.20;59.30;;;;;;5098985;28;20194;-89
2022/05/21 10:22:19;;;;;;;0.40;0.40;;;25.20;60.60;;;;;;5097429;28;20707;-89
2022/05/21 10:24:56;;;;;;;0.30;0.30;;;25.30;59.80;;;;;;5097454;28;20185;-89
2022/05/21 10:27:39;;;;;;;0.40;0.40;;;25.70;58.30;;;;;;5097828;28;20585;-89
2022/05/21 10:30:14;;;;;;;0.60;0.40;;;25.60;58.70;;;;;;5098131;28;20577;-89
2022/05/21 10:33:01;;;;;;;0.30;0.30;;;25.60;58.40;;;;;;5097478;28;20212;-89
2022/05/21 10:35:41;;;;;;;0.40;0.30;;;25.30;57.10;;;;;;5097898;28;20640;-90
2022/05/21 10:38:15;;;;;;;0.40;0.30;;;25.60;56.60;;;;;;5098200;28;20228;-90
2022/05/21 10:40:47;;;;;;;0.68;0.40;;;25.60;56.20;;;;;;5097475;28;20233;-90
2022/05/21 10:43:38;;;;;;;0.30;0.30;;;25.50;56.90;;;;;;5096603;28;20186;-90
2022/05/21 10:46:15;;;;;;;0.40;0.30;;;25.30;57.10;;;;;;5097575;28;20217;-89
2022/05/21 10:48:56;;;;;;;0.40;0.30;;;25.20;57.70;;;;;;5097514;28;20209;-87
2022/05/21 10:51:30;;;;;;;0.40;0.30;;;25.10;57.00;;;;;;5097572;28;20225;-89
2022/05/21 10:54:25;;;;;;;1.67;0.40;;;24.80;57.10;;;;;;5097261;28;20189;-89
2022/05/21 10:57:03;;;;;;;0.82;0.30;;;24.80;57.90;;;;;;5100587;28;20186;-89
2022/05/21 10:59:44;;;;;;;0.40;0.40;;;25.10;59.60;;;;;;5103026;28;20192;-89
2022/05/21 11:02:37;;;;;;;0.30;0.20;;;25.40;58.00;;;;;;5102211;28;20232;-90
2022/05/21 11:05:54;;;;;;;0.40;0.30;;;25.70;56.20;;;;;;5099769;28;20559;-89
2022/05/21 11:08:28;;;;;;;0.40;0.40;;;25.90;57.20;;;;;;5017036;28;20208;-89
2022/05/21 11:11:01;;;;;;;0.40;0.40;;;25.70;56.80;;;;;;5015210;28;20228;-88
2022/05/21 11:13:33;;;;;;;0.30;0.30;;;25.50;58.40;;;;;;5059177;28;20201;-89
2022/05/21 11:16:04;;;;;;;0.30;0.30;;;25.30;59.40;;;;;;5097177;28;20189;-88
2022/05/21 11:18:39;;;;;;;0.30;0.30;;;25.20;58.60;;;;;;5096974;28;20201;-89
2022/05/21 11:21:13;;;;;;;0.40;0.40;;;24.90;58.30;;;;;;5097173;28;20221;-90
2022/05/21 11:23:52;;;;;;;0.30;0.30;;;24.70;59.70;;;;;;5097245;28;20189;-88
2022/05/21 11:26:29;;;;;;;0.50;0.40;;;24.70;59.50;;;;;;5096665;28;20196;-88
2022/05/21 11:29:02;;;;;;;0.45;0.45;;;24.50;58.60;;;;;;5096454;28;20540;-89
2022/05/21 11:37:22;;;;;;;0.30;0.30;;;24.50;60.50;;;;;;5096312;28;20319;-90
2022/05/21 11:39:50;;;;;;;0.30;0.30;;;24.50;60.90;;;;;;5096103;28;20191;-89
2022/05/21 11:42:22;;;;;;;0.45;0.30;;;24.50;60.30;;;;;;5096302;28;20221;-88
2022/05/21 11:44:58;;;;;;;0.40;0.30;;;24.50;60.70;;;;;;5096487;28;20217;-89
2022/05/21 11:47:54;;;;;;;0.40;0.40;;;24.40;59.10;;;;;;5096209;28;20550;-89
2022/05/21 11:50:29;;;;;;;0.40;0.30;;;24.20;58.60;;;;;;5095990;28;20680;-89
2022/05/21 11:53:10;;;;;;;0.43;0.40;;;24.30;60.80;;;;;;5096302;28;20212;-89
2022/05/21 11:56:01;;;;;;;0.40;0.30;;;24.30;60.20;;;;;;5095560;28;20181;-89
2022/05/21 11:59:00;;;;;;;0.40;0.40;;;24.30;59.00;;;;;;5095895;28;20664;-89
2022/05/21 12:02:05;;;;;;;0.38;0.30;;;24.40;60.30;;;;;;5095436;28;20696;-88
2022/05/21 12:04:54;;;;;;;0.40;0.30;;;24.30;60.60;;;;;;5082108;28;20208;-90
2022/05/21 12:07:53;;;;;;;0.50;0.40;;;24.40;60.10;;;;;;5095306;28;20261;-89
2022/05/21 12:10:24;;;;;;;0.30;0.30;;;24.30;59.80;;;;;;5096149;28;20205;-89
2022/05/21 12:13:11;;;;;;;0.40;0.30;;;24.40;60.90;;;;;;5095212;28;20204;-89
2022/05/21 12:15:41;;;;;;;0.30;0.25;;;24.30;60.00;;;;;;5096120;28;20205;-89
2022/05/21 12:18:34;;;;;;;0.50;0.50;;;24.20;59.20;;;;;;5095605;28;20186;-88
2022/05/21 12:21:01;;;;;;;0.40;0.40;;;24.10;59.80;;;;;;5095496;28;20218;-89
2022/05/21 12:24:05;;;;;;;0.43;0.40;;;24.00;61.00;;;;;;5095224;28;20225;-89
2022/05/21 12:26:33;;;;;;;0.45;0.40;;;24.10;61.10;;;;;;4993867;28;20711;-90
2022/05/21 12:29:10;;;;;;;0.47;0.38;;;24.00;59.90;;;;;;4993709;28;20208;-88
2022/05/21 12:31:41;;;;;;;0.75;0.30;;;23.90;60.40;;;;;;5049799;28;20225;-88
2022/05/21 12:34:35;;;;;;;0.30;0.30;;;23.70;61.50;;;;;;5095082;28;20552;-88
2022/05/21 12:37:16;;;;;;;0.40;0.40;;;23.60;62.40;;;;;;5091364;28;20205;-88
2022/05/21 12:39:51;;;;;;;0.40;0.40;;;23.60;60.20;;;;;;5095191;28;20199;-88
2022/05/21 12:42:22;;;;;;;0.40;0.30;;;23.50;60.60;;;;;;5094899;28;20231;-89
2022/05/21 12:44:49;;;;;;;0.40;0.40;;;23.30;61.10;;;;;;5095352;28;20186;-88
2022/05/21 12:47:26;;;;;;;0.50;0.40;;;23.30;62.80;;;;;;5094645;28;20549;-88
2022/05/21 12:49:55;;;;;;;5.60;0.40;;;23.10;62.50;;;;;;5094719;28;20254;-88
2022/05/21 12:52:29;;;;;;;0.40;0.30;;;23.10;63.40;;;;;;5094850;28;20586;-88
2022/05/21 12:55:15;;;;;;;0.50;0.40;;;23.00;63.90;;;;;;5095753;28;20588;-89
2022/05/21 12:57:42;;;;;;;0.50;0.50;;;22.90;65.30;;;;;;5094321;28;20211;-89
2022/05/21 13:00:10;;;;;;;0.40;0.37;;;22.90;66.50;;;;;;5094388;28;20660;-88
2022/05/21 13:02:41;;;;;;;0.40;0.40;;;22.90;64.40;;;;;;5094504;28;20217;-87
2022/05/21 13:05:12;;;;;;;0.53;0.47;;;22.90;64.90;;;;;;5094177;28;20443;-88
2022/05/21 13:07:43;;;;;;;0.50;0.50;;;22.90;64.40;;;;;;5095285;28;20267;-89
2022/05/21 13:10:20;;;;;;;0.40;0.30;;;23.00;62.30;;;;;;5094790;28;20263;-88
2022/05/21 13:12:50;;;;;;;0.93;0.40;;;23.00;62.50;;;;;;5094609;28;20228;-88
2022/05/21 13:15:21;;;;;;;0.40;0.40;;;22.90;64.00;;;;;;5094726;28;20209;-88
2022/05/21 13:17:58;;;;;;;0.40;0.40;;;22.90;63.30;;;;;;5095161;28;20193;-88
2022/05/21 13:20:34;;;;;;;0.40;0.30;;;23.00;63.00;;;;;;5094626;28;20629;-89
2022/05/21 13:23:24;;;;;;;0.40;0.30;;;23.00;62.60;;;;;;5095457;28;20431;-89
2022/05/21 13:25:52;;;;;;;0.40;0.30;;;23.00;61.90;;;;;;5095676;28;20801;-88
2022/05/21 13:28:22;;;;;;;0.30;0.30;;;23.00;61.50;;;;;;5094650;28;20443;-88
2022/05/21 13:30:51;;;;;;;0.93;0.70;;;22.90;61.80;;;;;;5094022;28;20680;-88
2022/05/21 13:33:30;;;;;;;0.40;0.30;;;22.90;63.60;;;;;;5094466;28;20204;-89